Time;durP1;ratioP1;P1;durP2;ratioP2;P2;SDS_P1;SDS_P2;PMS_P1;PMS_P2;Temp;Humidity;BMP_temperature;BMP_pressure;BME280_temperature;BME280_humidity;BME280_pressure;Samples;Min_cycle;Max_cycle;Signal;HPM_P1;HPM_P2
2023/04/16 00:02:18;;;;;;;2.90;2.70;;;4.30;99.90;;;;;;5024653;28;20525;-39
2023/04/16 00:04:46;;;;;;;3.30;3.00;;;4.30;99.90;;;;;;5025748;28;20060;-37
2023/04/16 00:07:13;;;;;;;3.20;2.90;;;4.20;99.90;;;;;;5024364;28;20513;-38
2023/04/16 00:09:41;;;;;;;3.15;2.92;;;4.20;99.90;;;;;;5026089;28;20045;-37
2023/04/16 00:12:08;;;;;;;3.40;3.10;;;4.20;99.90;;;;;;5025566;28;20041;-37
2023/04/16 00:14:36;;;;;;;3.83;3.53;;;4.20;99.90;;;;;;5025162;28;20053;-37
2023/04/16 00:17:03;;;;;;;3.28;2.88;;;4.20;99.90;;;;;;5025756;28;20072;-37
2023/04/16 00:19:31;;;;;;;3.58;3.28;;;4.20;99.90;;;;;;5024381;28;20053;-37
2023/04/16 00:21:58;;;;;;;4.65;2.55;;;4.20;99.90;;;;;;5023991;28;20056;-37
2023/04/16 00:24:26;;;;;;;3.55;3.25;;;4.20;99.90;;;;;;5026522;28;20383;-37
2023/04/16 00:26:53;;;;;;;3.92;3.53;;;4.20;99.90;;;;;;5024158;28;20061;-38
2023/04/16 00:29:20;;;;;;;3.40;3.10;;;4.20;99.90;;;;;;5019855;28;20057;-37
2023/04/16 00:31:48;;;;;;;2.78;2.58;;;4.20;99.90;;;;;;5024996;28;20052;-38
2023/04/16 00:34:16;;;;;;;2.78;2.58;;;4.20;99.90;;;;;;5024767;28;20049;-38
2023/04/16 00:36:43;;;;;;;2.95;2.75;;;4.10;99.90;;;;;;5025620;28;20049;-37
2023/04/16 00:39:11;;;;;;;8.15;4.63;;;4.10;99.90;;;;;;5025131;28;20331;-37
2023/04/16 00:41:38;;;;;;;3.95;3.60;;;4.10;99.90;;;;;;5025171;28;20528;-37
2023/04/16 00:44:06;;;;;;;2.95;2.63;;;4.10;99.90;;;;;;5022140;28;20510;-38
2023/04/16 00:46:34;;;;;;;3.25;2.95;;;4.10;99.90;;;;;;5021763;28;20061;-37
2023/04/16 00:49:02;;;;;;;3.47;3.17;;;4.10;99.90;;;;;;5024327;28;20080;-39
2023/04/16 00:51:30;;;;;;;9.40;3.65;;;4.10;99.90;;;;;;5024265;28;20053;-37
2023/04/16 00:53:58;;;;;;;3.80;3.50;;;4.10;99.90;;;;;;5023505;28;20195;-37
2023/04/16 00:56:26;;;;;;;5.18;4.65;;;4.10;99.90;;;;;;5004095;28;20688;-38
2023/04/16 00:58:57;;;;;;;3.63;3.33;;;4.00;99.90;;;;;;5013350;28;20043;-37
2023/04/16 01:01:25;;;;;;;4.27;3.87;;;4.00;99.90;;;;;;5017264;28;20045;-37
2023/04/16 01:03:54;;;;;;;4.63;3.97;;;4.00;99.90;;;;;;5009964;28;20049;-38
2023/04/16 01:06:22;;;;;;;4.55;3.75;;;4.00;99.90;;;;;;5023715;28;20060;-37
2023/04/16 01:08:50;;;;;;;5.68;4.60;;;4.00;99.90;;;;;;5025486;28;20053;-37
2023/04/16 01:11:17;;;;;;;4.63;4.10;;;4.00;99.90;;;;;;5015077;28;20095;-37
2023/04/16 01:13:45;;;;;;;5.85;5.35;;;4.00;99.90;;;;;;5015884;28;20186;-37
2023/04/16 01:16:13;;;;;;;6.05;5.50;;;4.00;99.90;;;;;;5018365;28;20049;-37
2023/04/16 01:18:41;;;;;;;5.97;4.53;;;4.00;99.90;;;;;;5018367;28;20549;-38
2023/04/16 01:21:09;;;;;;;3.95;3.58;;;4.00;99.90;;;;;;5022300;28;20075;-38
2023/04/16 01:23:36;;;;;;;5.45;4.95;;;4.00;99.90;;;;;;5022711;28;20518;-37
2023/04/16 01:26:04;;;;;;;5.28;4.78;;;4.00;99.90;;;;;;5018764;28;20064;-37
2023/04/16 01:28:31;;;;;;;4.80;4.38;;;3.90;99.90;;;;;;5018474;28;20061;-37
2023/04/16 01:30:59;;;;;;;7.15;5.50;;;3.90;99.90;;;;;;5013195;28;20046;-37
2023/04/16 01:33:37;;;;;;;5.55;5.05;;;3.90;99.90;;;;;;5004731;28;20064;-38
2023/04/16 01:36:06;;;;;;;4.60;4.20;;;3.90;99.90;;;;;;5011015;28;20418;-37
2023/04/16 01:38:34;;;;;;;4.95;4.47;;;3.90;99.90;;;;;;5019937;28;20046;-37
2023/04/16 01:41:01;;;;;;;6.25;4.97;;;3.90;99.90;;;;;;5019237;28;20049;-37
2023/04/16 01:43:29;;;;;;;5.95;4.57;;;3.90;99.90;;;;;;5024342;28;20053;-37
2023/04/16 01:46:13;;;;;;;4.95;4.38;;;3.90;99.90;;;;;;5025012;28;20524;-37
2023/04/16 01:48:41;;;;;;;5.00;4.60;;;3.90;99.90;;;;;;5005912;28;20052;-37
2023/04/16 01:51:09;;;;;;;5.72;5.07;;;3.90;99.90;;;;;;5015476;28;20049;-38
2023/04/16 01:53:37;;;;;;;5.70;5.15;;;3.90;99.90;;;;;;5023060;28;20068;-37
2023/04/16 01:56:05;;;;;;;4.45;4.05;;;3.90;99.90;;;;;;5024040;28;20049;-37
2023/04/16 01:58:33;;;;;;;6.47;5.15;;;3.90;99.90;;;;;;5024025;28;20045;-37
2023/04/16 02:01:01;;;;;;;5.82;5.22;;;3.90;99.90;;;;;;4997055;28;20509;-38
2023/04/16 02:03:30;;;;;;;5.07;4.30;;;3.90;99.90;;;;;;5024449;28;20046;-38
2023/04/16 02:05:57;;;;;;;5.40;4.90;;;3.90;99.90;;;;;;5004281;28;20061;-36
2023/04/16 02:08:28;;;;;;;6.72;6.13;;;3.90;99.90;;;;;;5025051;28;20056;-37
2023/04/16 02:10:56;;;;;;;6.93;5.45;;;3.90;99.90;;;;;;5025036;28;20045;-38
2023/04/16 02:13:25;;;;;;;5.95;5.35;;;3.90;99.90;;;;;;5026268;28;20080;-36
2023/04/16 02:15:52;;;;;;;4.75;4.35;;;3.90;99.90;;;;;;5027388;28;20056;-37
2023/04/16 02:18:34;;;;;;;5.18;4.68;;;3.90;99.90;;;;;;5009887;28;20425;-37
2023/04/16 02:21:02;;;;;;;6.38;5.30;;;3.90;99.90;;;;;;5019086;28;20054;-37
2023/04/16 02:23:30;;;;;;;7.32;5.60;;;3.90;99.90;;;;;;5027474;28;20430;-38
2023/04/16 02:25:59;;;;;;;5.32;4.57;;;3.90;99.90;;;;;;5026140;28;20053;-37
2023/04/16 02:28:28;;;;;;;6.40;5.70;;;4.00;99.90;;;;;;5026087;28;20057;-37
2023/04/16 02:30:55;;;;;;;5.53;4.47;;;4.00;99.90;;;;;;5027079;28;20045;-37
2023/04/16 02:33:27;;;;;;;6.25;5.05;;;3.90;99.90;;;;;;4994063;28;20068;-37
2023/04/16 02:36:00;;;;;;;6.28;5.70;;;4.00;99.90;;;;;;5026193;28;20049;-37
2023/04/16 02:38:28;;;;;;;5.97;5.38;;;4.00;99.90;;;;;;5027306;28;20057;-37
2023/04/16 02:40:55;;;;;;;5.95;5.28;;;4.00;99.90;;;;;;5009776;28;20056;-37
2023/04/16 02:43:23;;;;;;;5.85;5.35;;;4.00;99.90;;;;;;5027986;28;20235;-37
2023/04/16 02:45:50;;;;;;;6.00;4.63;;;3.90;99.90;;;;;;5028233;28;20103;-36
2023/04/16 02:48:18;;;;;;;6.45;5.15;;;4.00;99.90;;;;;;5028046;28;20050;-36
2023/04/16 02:50:45;;;;;;;5.85;4.95;;;4.00;99.90;;;;;;5025573;28;20050;-36
2023/04/16 02:53:13;;;;;;;6.03;5.47;;;4.00;99.90;;;;;;5027977;28;20057;-36
2023/04/16 02:55:41;;;;;;;7.72;5.70;;;4.00;99.90;;;;;;5025349;28;20057;-36
2023/04/16 02:58:08;;;;;;;5.90;5.30;;;4.00;99.90;;;;;;5027494;28;20057;-37
2023/04/16 03:00:37;;;;;;;6.63;4.78;;;4.00;99.90;;;;;;5009795;28;20061;-37
2023/04/16 03:03:04;;;;;;;8.02;4.97;;;4.00;99.90;;;;;;5025714;28;20045;-37
2023/04/16 03:05:32;;;;;;;7.85;5.38;;;4.00;99.90;;;;;;5009064;28;20045;-37
2023/04/16 03:07:59;;;;;;;8.05;5.63;;;4.00;99.90;;;;;;5025628;28;20052;-37
2023/04/16 03:10:27;;;;;;;5.57;5.07;;;3.90;99.90;;;;;;5025994;28;20046;-37
2023/04/16 03:12:55;;;;;;;6.25;5.60;;;4.00;99.90;;;;;;5025673;28;20045;-38
2023/04/16 03:15:23;;;;;;;6.68;6.07;;;4.00;99.90;;;;;;5026851;28;20581;-38
2023/04/16 03:17:50;;;;;;;6.15;5.55;;;3.90;99.90;;;;;;5027470;28;20072;-37
2023/04/16 03:20:18;;;;;;;7.25;5.68;;;3.90;99.90;;;;;;5024873;28;20061;-37
2023/04/16 03:22:46;;;;;;;5.75;5.15;;;4.00;99.90;;;;;;5025702;28;20049;-37
2023/04/16 03:25:14;;;;;;;6.43;5.82;;;3.90;99.90;;;;;;5026724;28;20294;-38
2023/04/16 03:27:41;;;;;;;6.05;5.15;;;3.80;99.90;;;;;;5025918;28;20046;-39
2023/04/16 03:30:11;;;;;;;6.75;6.00;;;3.90;99.90;;;;;;5007783;28;20357;-37
2023/04/16 03:32:40;;;;;;;6.25;4.85;;;3.90;99.90;;;;;;5027464;28;20050;-37
2023/04/16 03:35:08;;;;;;;7.70;5.82;;;3.90;99.90;;;;;;5006902;28;20072;-37
2023/04/16 03:37:37;;;;;;;5.95;4.60;;;3.90;99.90;;;;;;5008317;28;20061;-37
2023/04/16 03:40:06;;;;;;;4.82;4.43;;;3.90;99.90;;;;;;5024685;28;20061;-37
2023/04/16 03:42:33;;;;;;;6.22;5.63;;;3.90;99.90;;;;;;5008081;28;20049;-38
2023/04/16 03:45:02;;;;;;;7.55;5.15;;;3.90;99.90;;;;;;5008289;28;20493;-38
2023/04/16 03:47:31;;;;;;;5.47;4.97;;;3.90;99.90;;;;;;5005559;28;20425;-38
2023/04/16 03:50:02;;;;;;;5.82;5.28;;;3.90;99.90;;;;;;5023486;28;20060;-37
2023/04/16 03:52:29;;;;;;;6.30;5.70;;;3.90;99.90;;;;;;5026535;28;20326;-37
2023/04/16 03:54:57;;;;;;;5.13;4.68;;;3.90;99.90;;;;;;5024119;28;20615;-37
2023/04/16 03:57:27;;;;;;;5.68;5.18;;;3.90;99.90;;;;;;5024447;28;20060;-37
2023/04/16 04:00:00;;;;;;;5.10;4.60;;;3.90;99.90;;;;;;5026396;28;20064;-39
2023/04/16 04:02:40;;;;;;;6.47;5.72;;;3.90;99.90;;;;;;5020835;28;20045;-37
2023/04/16 04:05:15;;;;;;;5.32;4.60;;;3.90;99.90;;;;;;5007822;28;20053;-37
2023/04/16 04:07:45;;;;;;;4.65;4.25;;;3.90;99.90;;;;;;5025629;28;20057;-37
2023/04/16 04:10:13;;;;;;;5.18;4.78;;;3.90;99.90;;;;;;5007697;28;20417;-38
2023/04/16 04:12:42;;;;;;;4.38;3.97;;;3.90;99.90;;;;;;5007837;28;20057;-38
2023/04/16 04:15:10;;;;;;;6.10;5.53;;;3.90;99.90;;;;;;5023315;28;20060;-37
2023/04/16 04:17:38;;;;;;;5.40;4.90;;;3.90;99.90;;;;;;5026213;28;20057;-37
2023/04/16 04:20:06;;;;;;;7.25;4.38;;;3.90;99.90;;;;;;5022593;28;20072;-37
2023/04/16 04:22:33;;;;;;;5.05;4.60;;;3.90;99.90;;;;;;5025273;28;20429;-37
2023/04/16 04:25:01;;;;;;;4.63;4.20;;;3.90;99.90;;;;;;5025215;28;20347;-37
2023/04/16 04:27:31;;;;;;;5.38;4.72;;;3.90;99.90;;;;;;5023660;28;20049;-37
2023/04/16 04:29:59;;;;;;;5.15;4.55;;;3.90;99.90;;;;;;5023440;28;20573;-36
2023/04/16 04:32:27;;;;;;;6.10;4.65;;;4.00;99.90;;;;;;5012013;28;20132;-38
2023/04/16 04:34:55;;;;;;;5.40;4.90;;;3.90;99.90;;;;;;5015357;28;20069;-38
2023/04/16 04:37:22;;;;;;;5.95;5.05;;;4.00;99.90;;;;;;5025403;28;20454;-37
2023/04/16 04:39:50;;;;;;;5.63;5.13;;;4.00;99.90;;;;;;5023201;28;20045;-38
2023/04/16 04:42:19;;;;;;;5.30;4.72;;;4.00;99.90;;;;;;5023678;28;20068;-37
2023/04/16 04:44:47;;;;;;;4.63;3.80;;;4.00;99.90;;;;;;5024417;28;20068;-38
2023/04/16 04:47:14;;;;;;;4.80;4.30;;;4.00;99.90;;;;;;5006938;28;20056;-37
2023/04/16 04:49:42;;;;;;;4.93;4.07;;;4.00;99.90;;;;;;5016640;28;20580;-37
2023/04/16 04:52:10;;;;;;;5.25;4.75;;;4.00;99.90;;;;;;5023645;28;20053;-37
2023/04/16 04:54:40;;;;;;;4.78;4.28;;;4.00;99.90;;;;;;5007531;28;20513;-37
2023/04/16 04:57:08;;;;;;;5.80;5.32;;;4.00;99.90;;;;;;4999450;28;20053;-37
2023/04/16 04:59:35;;;;;;;5.50;5.05;;;4.00;99.90;;;;;;5018754;28;20270;-37
2023/04/16 05:02:03;;;;;;;6.40;4.05;;;4.00;99.90;;;;;;5010049;28;20413;-37
2023/04/16 05:04:30;;;;;;;5.97;5.43;;;4.10;99.90;;;;;;5023853;28;20057;-38
2023/04/16 05:06:58;;;;;;;4.47;4.07;;;4.00;99.90;;;;;;5024700;28;20038;-37
2023/04/16 05:09:25;;;;;;;5.65;5.07;;;4.10;99.90;;;;;;5025377;28;20045;-38
2023/04/16 05:11:53;;;;;;;5.43;4.93;;;4.10;99.90;;;;;;5023880;28;20056;-37
2023/04/16 05:14:20;;;;;;;4.80;4.32;;;4.10;99.90;;;;;;5024046;28;20041;-37
2023/04/16 05:16:48;;;;;;;5.60;4.80;;;4.20;99.90;;;;;;5025054;28;20536;-37
2023/04/16 05:19:16;;;;;;;5.38;4.88;;;4.20;99.90;;;;;;5024066;28;20278;-37
2023/04/16 05:21:43;;;;;;;4.22;3.92;;;4.20;99.90;;;;;;5024044;28;20049;-37
2023/04/16 05:24:11;;;;;;;5.43;4.88;;;4.20;99.90;;;;;;5025565;28;20057;-37
2023/04/16 05:26:41;;;;;;;5.70;5.15;;;4.20;99.90;;;;;;5027047;28;20052;-37
2023/04/16 05:29:08;;;;;;;4.70;4.38;;;4.20;99.90;;;;;;5023574;28;20053;-37
2023/04/16 05:31:37;;;;;;;4.10;3.80;;;4.20;99.90;;;;;;5023332;28;20225;-38
2023/04/16 05:34:04;;;;;;;4.40;4.10;;;4.20;99.90;;;;;;5023037;28;20065;-37
2023/04/16 05:36:32;;;;;;;4.90;4.40;;;4.20;99.90;;;;;;5024312;28;20065;-37
2023/04/16 05:38:59;;;;;;;4.43;4.03;;;4.20;99.90;;;;;;5023933;28;20383;-39
2023/04/16 05:41:27;;;;;;;3.97;3.58;;;4.20;99.90;;;;;;5024122;28;20049;-37
2023/04/16 05:43:55;;;;;;;4.28;3.88;;;4.20;99.90;;;;;;5023462;28;20056;-38
2023/04/16 05:46:23;;;;;;;4.30;3.95;;;4.20;99.90;;;;;;5023831;28;20053;-37
2023/04/16 05:48:50;;;;;;;3.35;3.10;;;4.20;99.90;;;;;;5023531;28;20480;-37
2023/04/16 05:51:18;;;;;;;4.18;3.60;;;4.30;99.90;;;;;;5023066;28;20046;-37
2023/04/16 05:53:46;;;;;;;5.13;4.65;;;4.30;99.90;;;;;;5024644;28;20536;-38
2023/04/16 05:56:13;;;;;;;4.35;4.00;;;4.30;99.90;;;;;;5023706;28;20049;-37
2023/04/16 05:58:41;;;;;;;4.53;3.72;;;4.30;99.90;;;;;;5023873;28;20226;-38
2023/04/16 06:01:10;;;;;;;3.38;3.08;;;4.30;99.90;;;;;;5024250;28;20045;-37
2023/04/16 06:03:37;;;;;;;3.40;3.10;;;4.40;99.90;;;;;;5023618;28;20057;-39
2023/04/16 06:06:07;;;;;;;3.20;2.80;;;4.50;99.90;;;;;;5022981;28;20080;-37
2023/04/16 06:08:35;;;;;;;3.17;2.97;;;4.50;99.90;;;;;;5024682;28;20057;-37
2023/04/16 06:11:03;;;;;;;3.03;2.83;;;4.50;99.90;;;;;;5020223;28;20513;-37
2023/04/16 06:13:30;;;;;;;3.45;2.83;;;4.50;99.90;;;;;;5025226;28;20061;-37
2023/04/16 06:15:58;;;;;;;3.38;2.78;;;4.50;99.90;;;;;;5023057;28;20057;-37
2023/04/16 06:18:25;;;;;;;3.38;3.08;;;4.50;99.90;;;;;;5002167;28;20073;-37
2023/04/16 06:20:53;;;;;;;2.53;2.33;;;4.60;99.90;;;;;;5022750;28;20045;-37
2023/04/16 06:23:20;;;;;;;2.45;2.25;;;4.60;99.90;;;;;;5023719;28;20056;-37
2023/04/16 06:25:48;;;;;;;2.28;2.05;;;4.60;99.90;;;;;;5023510;28;20057;-37
2023/04/16 06:28:15;;;;;;;2.55;2.30;;;4.60;99.90;;;;;;5016219;28;20049;-37
2023/04/16 06:30:43;;;;;;;2.30;2.10;;;4.60;99.90;;;;;;5023589;28;20056;-37
2023/04/16 06:33:11;;;;;;;2.17;2.08;;;4.70;99.90;;;;;;5024474;28;20089;-37
2023/04/16 06:35:38;;;;;;;2.78;2.58;;;4.80;99.90;;;;;;5022361;28;20045;-39
2023/04/16 06:38:06;;;;;;;2.15;2.03;;;4.90;99.90;;;;;;5023557;28;20418;-37
2023/04/16 06:40:36;;;;;;;2.58;2.38;;;4.90;99.90;;;;;;5023823;28;20085;-37
2023/04/16 06:43:04;;;;;;;2.00;1.90;;;4.90;99.90;;;;;;5023217;28;20049;-37
2023/04/16 06:45:32;;;;;;;2.22;2.13;;;4.90;99.90;;;;;;5024131;28;20075;-38
2023/04/16 06:48:02;;;;;;;1.77;1.67;;;4.90;99.90;;;;;;5022919;28;20521;-37
2023/04/16 06:50:29;;;;;;;2.15;2.05;;;4.90;99.90;;;;;;5022255;28;20045;-37
2023/04/16 06:52:57;;;;;;;1.48;1.42;;;4.90;99.90;;;;;;5024536;28;20042;-38
2023/04/16 06:55:25;;;;;;;1.73;1.63;;;5.00;99.90;;;;;;5023451;28;20046;-37
2023/04/16 06:57:52;;;;;;;1.70;1.60;;;5.00;99.90;;;;;;5026979;28;20084;-38
2023/04/16 07:00:20;;;;;;;1.50;1.48;;;5.00;99.90;;;;;;5025859;28;20057;-37
2023/04/16 07:02:47;;;;;;;2.08;1.98;;;5.00;99.90;;;;;;5026832;28;20038;-38
2023/04/16 07:05:15;;;;;;;1.58;1.48;;;5.10;99.90;;;;;;5025252;28;20565;-38
2023/04/16 07:07:42;;;;;;;1.13;1.13;;;5.00;99.90;;;;;;5026793;28;20052;-37
2023/04/16 07:10:10;;;;;;;1.42;1.33;;;5.10;99.90;;;;;;5026465;28;20076;-37
2023/04/16 07:12:38;;;;;;;1.30;1.20;;;5.10;99.90;;;;;;5027525;28;20041;-37
2023/04/16 07:15:06;;;;;;;1.00;1.00;;;5.10;99.90;;;;;;5026420;28;20041;-37
2023/04/16 07:17:33;;;;;;;1.20;1.20;;;5.20;99.90;;;;;;5027184;28;20045;-37
2023/04/16 07:20:01;;;;;;;1.40;1.30;;;5.30;99.90;;;;;;5025120;28;20572;-38
2023/04/16 07:22:28;;;;;;;1.23;1.23;;;5.30;99.90;;;;;;5026337;28;20052;-37
2023/04/16 07:24:56;;;;;;;3.88;1.65;;;5.30;99.90;;;;;;5027444;28;20294;-38
2023/04/16 07:27:23;;;;;;;0.90;0.90;;;5.30;99.90;;;;;;5026075;28;20045;-38
2023/04/16 07:29:51;;;;;;;1.02;1.02;;;5.40;99.90;;;;;;5026714;28;20690;-37
2023/04/16 07:32:21;;;;;;;0.80;0.80;;;5.30;99.90;;;;;;5025690;28;20052;-37
2023/04/16 07:34:48;;;;;;;1.45;1.35;;;5.40;99.90;;;;;;5025430;28;20052;-37
2023/04/16 07:37:16;;;;;;;0.80;0.80;;;5.50;99.90;;;;;;5025854;28;20053;-38
2023/04/16 07:39:43;;;;;;;0.90;0.90;;;5.50;99.90;;;;;;5026224;28;20569;-37
2023/04/16 07:42:11;;;;;;;0.88;0.88;;;5.60;99.90;;;;;;5025557;28;20058;-39
2023/04/16 07:44:38;;;;;;;0.88;0.88;;;5.70;99.90;;;;;;5026543;28;20510;-38
2023/04/16 07:47:06;;;;;;;1.00;1.00;;;5.60;99.90;;;;;;5025612;28;20045;-38
2023/04/16 07:49:33;;;;;;;1.00;1.00;;;5.70;99.90;;;;;;5024510;28;20375;-37
2023/04/16 07:52:01;;;;;;;1.10;1.10;;;5.80;99.90;;;;;;5024768;28;20462;-37
2023/04/16 07:54:29;;;;;;;0.90;0.90;;;5.90;99.90;;;;;;5030467;28;21420;-38
2023/04/16 07:56:56;;;;;;;1.25;1.15;;;5.90;99.90;;;;;;5027345;28;20129;-37
2023/04/16 07:59:24;;;;;;;0.70;0.70;;;5.90;99.90;;;;;;4999722;28;20064;-39
2023/04/16 08:01:53;;;;;;;1.20;1.10;;;5.80;99.90;;;;;;5025527;28;20056;-38
2023/04/16 08:04:23;;;;;;;0.65;0.65;;;5.90;99.90;;;;;;5024739;28;20045;-38
2023/04/16 08:06:53;;;;;;;0.98;0.98;;;5.90;99.90;;;;;;5025004;28;20622;-38
2023/04/16 08:09:22;;;;;;;0.80;0.80;;;5.80;99.90;;;;;;5025271;28;20053;-39
2023/04/16 08:11:49;;;;;;;0.70;0.70;;;5.90;99.90;;;;;;5024692;28;20041;-38
2023/04/16 08:14:17;;;;;;;0.70;0.70;;;5.80;99.90;;;;;;5025643;28;20050;-38
2023/04/16 08:16:44;;;;;;;0.70;0.70;;;6.00;99.90;;;;;;5025428;28;20375;-38
2023/04/16 08:19:12;;;;;;;0.82;0.82;;;5.90;99.90;;;;;;5025123;28;20053;-38
2023/04/16 08:21:40;;;;;;;0.85;0.85;;;6.00;99.90;;;;;;5025155;28;20049;-37
2023/04/16 08:24:07;;;;;;;0.70;0.70;;;6.10;99.90;;;;;;5025518;28;20060;-38
2023/04/16 08:26:35;;;;;;;0.70;0.70;;;6.20;99.90;;;;;;5025223;28;20060;-37
2023/04/16 08:29:03;;;;;;;0.70;0.70;;;6.30;99.90;;;;;;5018586;28;20566;-38
2023/04/16 08:31:30;;;;;;;1.88;0.70;;;6.40;99.90;;;;;;5024366;28;20072;-38
2023/04/16 08:33:59;;;;;;;0.60;0.60;;;6.40;99.90;;;;;;5024166;28;20061;-37
2023/04/16 08:36:27;;;;;;;0.70;0.70;;;6.50;99.90;;;;;;5025569;28;20414;-38
2023/04/16 08:38:54;;;;;;;0.60;0.60;;;6.80;99.90;;;;;;5025402;28;20049;-37
2023/04/16 08:41:23;;;;;;;0.70;0.70;;;7.10;99.90;;;;;;5025524;28;20466;-38
2023/04/16 08:43:55;;;;;;;0.98;0.98;;;7.30;99.90;;;;;;5025087;28;20072;-38
2023/04/16 08:46:27;;;;;;;0.75;0.73;;;7.00;99.90;;;;;;5022671;28;20049;-37
2023/04/16 08:48:59;;;;;;;0.80;0.80;;;7.00;99.90;;;;;;5025304;28;20357;-37
2023/04/16 08:51:28;;;;;;;;;;;7.10;99.90;;;;;;5024590;28;20041;-38
2023/04/16 08:54:07;;;;;;;0.70;0.70;;;7.00;99.90;;;;;;5025478;28;19948;-38
2023/04/16 08:56:36;;;;;;;3.22;0.65;;;7.10;99.90;;;;;;5005236;28;20426;-37
2023/04/16 08:59:06;;;;;;;0.98;0.90;;;7.10;99.90;;;;;;5006480;28;20057;-37
2023/04/16 09:01:35;;;;;;;0.77;0.77;;;6.90;99.90;;;;;;5024794;28;20072;-38
2023/04/16 09:04:03;;;;;;;1.02;0.93;;;6.90;99.90;;;;;;5023268;28;20049;-39
2023/04/16 09:06:32;;;;;;;0.70;0.70;;;6.90;99.90;;;;;;5024485;28;20041;-39
2023/04/16 09:09:03;;;;;;;0.68;0.68;;;7.00;99.90;;;;;;5025519;28;20064;-38
2023/04/16 09:11:31;;;;;;;0.77;0.77;;;6.90;99.90;;;;;;5024799;28;20051;-37
2023/04/16 09:13:59;;;;;;;0.50;0.50;;;7.00;99.90;;;;;;5015774;28;20072;-37
2023/04/16 09:16:32;;;;;;;0.98;0.88;;;7.00;99.90;;;;;;5025451;28;20520;-38
2023/04/16 09:18:59;;;;;;;0.57;0.57;;;7.10;99.90;;;;;;5023044;28;20469;-38
2023/04/16 09:21:27;;;;;;;0.60;0.60;;;7.20;99.90;;;;;;5024222;28;20502;-38
2023/04/16 09:23:55;;;;;;;0.85;0.85;;;7.40;99.90;;;;;;5024238;28;20061;-38
2023/04/16 09:26:23;;;;;;;0.50;0.50;;;7.50;99.90;;;;;;5024044;28;20054;-38
2023/04/16 09:28:51;;;;;;;0.82;0.73;;;7.60;99.90;;;;;;5024861;28;20053;-38
2023/04/16 09:31:18;;;;;;;0.55;0.55;;;7.50;99.90;;;;;;5023524;28;20057;-40
2023/04/16 09:34:07;;;;;;;0.60;0.60;;;7.60;99.90;;;;;;5023891;28;20065;-38
2023/04/16 09:36:35;;;;;;;0.70;0.70;;;7.70;99.90;;;;;;4979750;28;20057;-38
2023/04/16 09:39:03;;;;;;;0.60;0.50;;;7.90;99.90;;;;;;5024454;28;20053;-37
2023/04/16 09:41:34;;;;;;;0.47;0.47;;;7.90;99.90;;;;;;5024584;28;20049;-38
2023/04/16 09:44:03;;;;;;;0.43;0.43;;;8.00;99.90;;;;;;5023449;28;20257;-39
2023/04/16 09:46:39;;;;;;;0.50;0.50;;;8.00;99.90;;;;;;5023396;28;20053;-38
2023/04/16 09:49:14;;;;;;;0.50;0.50;;;8.10;99.90;;;;;;5024112;28;20053;-37
2023/04/16 09:51:43;;;;;;;0.45;0.45;;;8.10;99.90;;;;;;5023012;28;20057;-37
2023/04/16 09:54:10;;;;;;;0.52;0.52;;;8.50;99.90;;;;;;5024070;28;20049;-38
2023/04/16 09:56:40;;;;;;;0.77;0.70;;;8.70;99.90;;;;;;5024540;28;20045;-37
2023/04/16 09:59:20;;;;;;;0.80;0.80;;;8.80;99.90;;;;;;5024336;28;20048;-37
2023/04/16 10:01:48;;;;;;;1.20;0.50;;;8.90;99.90;;;;;;5023738;28;20136;-37
2023/04/16 10:04:16;;;;;;;0.50;0.50;;;8.80;99.90;;;;;;5022821;28;20053;-37
2023/04/16 10:06:47;;;;;;;0.95;0.60;;;8.90;99.90;;;;;;5023082;28;20057;-37
2023/04/16 10:09:15;;;;;;;0.60;0.60;;;9.00;99.90;;;;;;5024412;28;20054;-38
2023/04/16 10:11:42;;;;;;;0.43;0.43;;;9.20;99.90;;;;;;5023837;28;20053;-38
2023/04/16 10:14:10;;;;;;;0.80;0.80;;;9.40;99.90;;;;;;5024219;28;20049;-38
2023/04/16 10:16:39;;;;;;;0.47;0.47;;;9.40;99.90;;;;;;5025066;28;20053;-38
2023/04/16 10:19:07;;;;;;;0.63;0.50;;;9.50;99.90;;;;;;5023103;28;20386;-37
2023/04/16 10:21:35;;;;;;;0.60;0.60;;;9.70;99.90;;;;;;5024081;28;20061;-38
2023/04/16 10:24:03;;;;;;;0.65;0.65;;;9.70;99.90;;;;;;5023788;28;20050;-38
2023/04/16 10:26:32;;;;;;;1.08;0.65;;;9.70;99.90;;;;;;5023485;28;20057;-37
2023/04/16 10:29:00;;;;;;;0.55;0.55;;;9.60;99.90;;;;;;5024392;28;20053;-37
2023/04/16 10:31:28;;;;;;;1.08;1.05;;;9.70;99.90;;;;;;5023695;28;20049;-38
2023/04/16 10:33:57;;;;;;;0.43;0.43;;;9.80;99.90;;;;;;5025929;28;20057;-37
2023/04/16 10:36:25;;;;;;;3.13;0.57;;;9.80;99.90;;;;;;5026503;28;20045;-38
2023/04/16 10:38:57;;;;;;;0.52;0.50;;;9.40;99.90;;;;;;5026846;28;20253;-38
2023/04/16 10:41:26;;;;;;;0.50;0.50;;;8.90;99.90;;;;;;5028024;28;20053;-39
2023/04/16 10:44:08;;;;;;;0.60;0.60;;;9.00;99.90;;;;;;5027063;28;20529;-37
2023/04/16 10:46:38;;;;;;;0.40;0.40;;;9.10;99.90;;;;;;5027057;28;20045;-38
2023/04/16 10:49:18;;;;;;;0.40;0.40;;;9.30;99.90;;;;;;5026977;28;20481;-38
2023/04/16 10:51:53;;;;;;;0.40;0.40;;;9.50;99.90;;;;;;5021808;28;20053;-38
2023/04/16 10:54:28;;;;;;;0.50;0.50;;;9.60;99.90;;;;;;5026631;28;20053;-38
2023/04/16 10:56:58;;;;;;;0.43;0.43;;;9.60;99.90;;;;;;5027634;28;20060;-38
2023/04/16 10:59:30;;;;;;;0.50;0.50;;;9.90;99.90;;;;;;5027027;28;20053;-38
2023/04/16 11:02:02;;;;;;;0.45;0.45;;;9.90;99.90;;;;;;5026917;28;20293;-36
2023/04/16 11:04:38;;;;;;;0.43;0.43;;;10.10;99.90;;;;;;5020441;28;20418;-38
2023/04/16 11:07:10;;;;;;;0.57;0.50;;;10.10;99.90;;;;;;5025992;28;20068;-38
2023/04/16 11:09:52;;;;;;;0.60;0.60;;;10.00;99.90;;;;;;5027287;28;20050;-37
2023/04/16 11:12:22;;;;;;;0.60;0.60;;;10.00;99.90;;;;;;5019226;28;20061;-37
2023/04/16 11:14:57;;;;;;;0.50;0.50;;;10.00;99.90;;;;;;5027190;28;20056;-37
2023/04/16 11:17:29;;;;;;;0.50;0.50;;;10.10;99.90;;;;;;5019631;28;20532;-38
2023/04/16 11:19:57;;;;;;;0.60;0.60;;;9.80;99.90;;;;;;5025587;28;20497;-39
2023/04/16 11:22:25;;;;;;;0.52;0.52;;;9.70;99.90;;;;;;5025435;28;20045;-37
2023/04/16 11:24:55;;;;;;;0.50;0.50;;;9.90;99.90;;;;;;5026959;28;20064;-37
2023/04/16 11:27:23;;;;;;;0.60;0.60;;;9.80;99.90;;;;;;5021370;28;20050;-38
2023/04/16 11:30:03;;;;;;;0.40;0.40;;;9.60;99.90;;;;;;5027037;28;20464;-38
2023/04/16 11:32:32;;;;;;;0.50;0.50;;;9.70;99.90;;;;;;5003715;28;20072;-38
2023/04/16 11:35:12;;;;;;;0.73;0.73;;;9.50;99.90;;;;;;5025390;28;20048;-38
2023/04/16 11:37:41;;;;;;;0.55;0.55;;;9.50;99.90;;;;;;5026452;28;20049;-38
2023/04/16 11:40:09;;;;;;;0.60;0.60;;;9.50;99.90;;;;;;5026569;28;20041;-38
2023/04/16 11:42:42;;;;;;;0.63;0.63;;;9.30;99.90;;;;;;5025733;28;20402;-38
2023/04/16 11:45:11;;;;;;;0.60;0.60;;;9.10;99.90;;;;;;5025955;28;20049;-38
2023/04/16 11:47:44;;;;;;;0.50;0.50;;;9.00;99.90;;;;;;5026101;28;20041;-37
2023/04/16 11:50:28;;;;;;;0.73;0.60;;;9.20;99.90;;;;;;5024898;28;20506;-37
2023/04/16 11:53:02;;;;;;;0.50;0.50;;;9.30;99.90;;;;;;5026302;28;20054;-37
2023/04/16 11:55:29;;;;;;;0.75;0.75;;;9.40;99.90;;;;;;5025363;28;20049;-39
2023/04/16 11:58:11;;;;;;;0.50;0.50;;;9.40;99.90;;;;;;5026259;28;20053;-37
2023/04/16 12:00:40;;;;;;;0.60;0.60;;;9.40;99.90;;;;;;5003195;28;20057;-37
2023/04/16 12:03:08;;;;;;;1.05;1.05;;;9.30;99.90;;;;;;5023113;28;20041;-37
2023/04/16 12:05:37;;;;;;;0.65;0.65;;;9.20;99.90;;;;;;5025378;28;20056;-37
2023/04/16 12:08:08;;;;;;;0.77;0.77;;;9.00;99.90;;;;;;5026059;28;20425;-40
2023/04/16 12:10:52;;;;;;;0.60;0.60;;;9.00;99.90;;;;;;5025114;28;20060;-38
2023/04/16 12:13:20;;;;;;;0.63;0.60;;;9.10;99.90;;;;;;5027036;28;20053;-39
2023/04/16 12:15:53;;;;;;;0.80;0.80;;;8.80;99.90;;;;;;5025306;28;20076;-38
2023/04/16 12:18:22;;;;;;;1.35;0.88;;;8.80;99.90;;;;;;5025051;28;20053;-38
2023/04/16 12:20:50;;;;;;;2.22;1.40;;;8.90;99.90;;;;;;5025126;28;20073;-39
2023/04/16 12:23:32;;;;;;;0.55;0.52;;;8.90;99.90;;;;;;5025321;28;20057;-38
2023/04/16 12:26:09;;;;;;;0.70;0.70;;;8.90;99.90;;;;;;5025608;28;20072;-40
2023/04/16 12:28:38;;;;;;;1.00;0.95;;;8.80;99.90;;;;;;5025662;28;20564;-39
2023/04/16 12:31:06;;;;;;;1.20;0.90;;;8.90;99.90;;;;;;5022003;28;20041;-39
2023/04/16 12:33:36;;;;;;;0.70;0.70;;;9.00;99.90;;;;;;5024668;28;20057;-38
2023/04/16 12:36:17;;;;;;;1.00;0.90;;;9.10;99.90;;;;;;5024528;28;20295;-38
2023/04/16 12:38:45;;;;;;;;;;;9.00;99.90;;;;;;5024604;28;20056;-39
2023/04/16 12:41:12;;;;;;;0.52;0.50;;;8.90;99.90;;;;;;5025339;28;20312;-38
2023/04/16 12:43:40;;;;;;;0.70;0.70;;;9.10;99.90;;;;;;5023908;28;20057;-38
2023/04/16 12:46:07;;;;;;;0.90;0.88;;;9.10;99.90;;;;;;5024692;28;20064;-38
2023/04/16 12:48:36;;;;;;;0.63;0.63;;;9.10;99.90;;;;;;5025337;28;20046;-37
2023/04/16 12:51:04;;;;;;;1.08;1.08;;;9.10;99.90;;;;;;5023265;28;20049;-38
2023/04/16 12:53:32;;;;;;;1.05;1.05;;;9.30;99.90;;;;;;5019568;28;20402;-39
2023/04/16 12:55:59;;;;;;;0.77;0.77;;;9.40;99.90;;;;;;5024041;28;20054;-38
2023/04/16 12:58:27;;;;;;;0.70;0.70;;;9.40;99.90;;;;;;5016216;28;20520;-39
2023/04/16 13:00:55;;;;;;;0.70;0.70;;;9.20;99.90;;;;;;5024586;28;20053;-38
2023/04/16 13:03:22;;;;;;;0.50;0.50;;;9.20;99.90;;;;;;5024674;28;20048;-38
2023/04/16 13:05:50;;;;;;;0.95;0.95;;;9.20;99.90;;;;;;5024111;28;20064;-39
2023/04/16 13:08:18;;;;;;;0.90;0.90;;;9.10;99.90;;;;;;5024511;28;20500;-39